Ornslund, Denmark
Current Conditions -  °F | °C
As of 12:50 PM on Thursday 29 Jan 2015 (Local Time) from EKOD Reporting Station
Broken Clouds Broken Clouds  
Wind Chill: 26°   Ceiling: 2400
Heat Index: 36°   Visibility: 6mi
Dew Point: 36°   Wind: 16mph
Humidity: 100%   Direction: 200°SSW
Pressure: 28.82"   Gusts: NA
Location:  55.7°N, 10.6°E
Report Text: EKOD 291150Z 20014KT 9999 FEW010 BKN024 02/02 Q0976
Loading
Personal Weather Stations






























Interactive Weather Map New forecast layout! Learn more

10-Day Weather Forecast

Advertisements
Track Severe Weather on mobile